Time;durP1;ratioP1;P1;durP2;ratioP2;P2;SDS_P1;SDS_P2;PMS_P1;PMS_P2;Temp;Humidity;BMP_temperature;BMP_pressure;BME280_temperature;BME280_humidity;BME280_pressure;Samples;Min_cycle;Max_cycle;Signal;HPM_P1;HPM_P2
2021/07/12 00:02:07;;;;;;;70.78;28.47;;;;;;;19.86;90.17;99444.52;1675962;85;21085;-68
2021/07/12 00:04:34;;;;;;;92.80;30.97;;;;;;;19.82;89.95;99435.33;1677151;84;21469;-69
2021/07/12 00:07:02;;;;;;;155.03;35.95;;;;;;;19.78;90.14;99429.71;1656866;84;21476;-69
2021/07/12 00:09:29;;;;;;;71.10;32.15;;;;;;;19.77;90.44;99439.25;1678664;85;20962;-69
2021/07/12 00:11:57;;;;;;;97.78;34.05;;;;;;;19.75;90.39;99436.04;1671854;84;21472;-69
2021/07/12 00:14:23;;;;;;;68.87;29.20;;;;;;;19.71;90.41;99431.02;1672550;84;20960;-69
2021/07/12 00:16:50;;;;;;;49.83;25.60;;;;;;;19.66;90.58;99432.75;1678165;84;20918;-69
2021/07/12 00:19:18;;;;;;;52.53;27.10;;;;;;;19.66;90.68;99424.98;1677269;85;21761;-69
2021/07/12 00:21:46;;;;;;;47.88;27.58;;;;;;;19.65;90.80;99426.97;1677348;84;21080;-69
2021/07/12 00:24:14;;;;;;;55.55;27.62;;;;;;;19.63;91.08;99437.71;1668321;84;21532;-68
2021/07/12 00:26:42;;;;;;;43.45;26.12;;;;;;;19.62;91.31;99426.36;1673428;84;20969;-69
2021/07/12 00:29:09;;;;;;;48.45;22.65;;;;;;;19.62;91.47;99433.91;1678785;84;21564;-68
2021/07/12 00:31:37;;;;;;;42.33;22.05;;;;;;;19.61;91.45;99432.31;1623926;85;20934;-68
2021/07/12 00:34:04;;;;;;;33.83;23.07;;;;;;;19.60;91.51;99432.90;1672726;85;21038;-69
2021/07/12 00:36:32;;;;;;;40.28;23.52;;;;;;;19.59;91.34;99430.49;1651810;84;20917;-69
2021/07/12 00:39:01;;;;;;;34.43;21.70;;;;;;;19.57;91.47;99425.30;1676802;84;21080;-69
2021/07/12 00:41:29;;;;;;;35.95;24.25;;;;;;;19.54;91.50;99424.67;1675923;85;21087;-69
2021/07/12 00:43:55;;;;;;;42.75;20.60;;;;;;;19.52;91.37;99420.66;1674796;84;21122;-69
2021/07/12 00:46:22;;;;;;;40.45;20.12;;;;;;;19.50;91.39;99422.98;1675611;85;20929;-68
2021/07/12 00:48:49;;;;;;;33.67;19.15;;;;;;;19.49;91.56;99421.38;1675406;84;21962;-69
2021/07/12 00:51:15;;;;;;;36.40;17.75;;;;;;;19.47;92.06;99424.55;1659944;84;21017;-69
2021/07/12 00:53:43;;;;;;;40.55;19.15;;;;;;;19.46;92.19;99417.38;1673693;84;21531;-70
2021/07/12 00:56:11;;;;;;;35.70;17.92;;;;;;;19.44;92.22;99419.14;1653552;84;21081;-70
2021/07/12 00:58:38;;;;;;;43.80;19.17;;;;;;;19.41;92.18;99412.94;1671625;84;21033;-70
2021/07/12 01:01:06;;;;;;;48.17;20.20;;;;;;;19.38;92.18;99411.50;1672511;84;21112;-70
2021/07/12 01:03:34;;;;;;;36.20;17.42;;;;;;;19.34;92.28;99414.83;1674973;84;20958;-69
2021/07/12 01:06:04;;;;;;;45.45;17.48;;;;;;;19.32;92.39;99418.58;1671367;84;21066;-69
2021/07/12 01:08:33;;;;;;;37.23;17.57;;;;;;;19.31;92.46;99421.14;1674826;85;20965;-69
2021/07/12 01:11:13;;;;;;;31.37;17.30;;;;;;;19.28;92.69;99418.52;1674704;85;20963;-69
2021/07/12 01:13:55;;;;;;;28.52;16.23;;;;;;;19.27;92.74;99419.70;1673259;85;21149;-70
2021/07/12 01:16:49;;;;;;;26.70;16.23;;;;;;;19.25;92.74;99417.08;1676886;84;21024;-69
2021/07/12 01:19:51;;;;;;;33.23;14.78;;;;;;;19.21;92.56;99417.03;1669279;85;21123;-70
2021/07/12 01:22:55;;;;;;;37.38;15.50;;;;;;;19.17;92.65;99415.38;1667333;84;20973;-69
2021/07/12 01:25:48;;;;;;;30.57;17.10;;;;;;;19.12;92.72;99422.88;1655289;85;21013;-68
2021/07/12 01:28:58;;;;;;;31.85;15.32;;;;;;;19.08;92.95;99418.44;1656817;85;21147;-68
2021/07/12 01:31:53;;;;;;;30.92;15.18;;;;;;;19.03;93.15;99423.77;1645752;86;21571;-68
2021/07/12 01:34:44;;;;;;;30.52;14.58;;;;;;;19.00;93.38;99423.13;1636805;87;21601;-70
2021/07/12 01:37:42;;;;;;;;;;;;;;;18.95;93.42;99410.92;1625369;87;20967;-72
2021/07/12 01:40:15;;;;;;;27.37;14.73;;;;;;;18.88;93.63;99413.60;1612487;87;20171;-71
2021/07/12 01:43:05;;;;;;;28.70;14.90;;;;;;;18.80;94.06;99407.72;1631585;87;21223;-70
2021/07/12 01:45:38;;;;;;;23.60;14.78;;;;;;;18.80;94.41;99406.33;1641786;85;21033;-70
2021/07/12 01:48:11;;;;;;;22.35;14.38;;;;;;;18.81;94.49;99407.93;1641356;86;23053;-71
2021/07/12 01:50:54;;;;;;;23.25;15.78;;;;;;;18.80;94.66;99409.11;1660688;85;21005;-70
2021/07/12 01:53:59;;;;;;;23.45;14.63;;;;;;;18.82;94.68;99412.91;1637765;85;21450;-71
2021/07/12 01:56:37;;;;;;;28.52;15.68;;;;;;;18.84;94.75;99414.13;1645061;85;21154;-71
2021/07/12 01:59:20;;;;;;;24.02;15.98;;;;;;;18.82;94.53;99416.48;1657188;85;21574;-70
2021/07/12 02:01:47;;;;;;;29.82;17.65;;;;;;;18.80;94.73;99423.02;1654778;86;21449;-71
2021/07/12 02:04:15;;;;;;;35.73;17.80;;;;;;;18.80;94.88;99423.02;1656146;85;21068;-71
2021/07/12 02:06:42;;;;;;;27.13;16.37;;;;;;;18.79;94.90;99425.58;1639868;85;20918;-70
2021/07/12 02:09:12;;;;;;;30.15;16.82;;;;;;;18.80;95.09;99429.37;1642487;85;21073;-71
2021/07/12 02:11:42;;;;;;;26.68;15.08;;;;;;;18.80;95.12;99428.57;1655633;85;21010;-70
2021/07/12 02:14:09;;;;;;;30.68;18.40;;;;;;;18.79;95.33;99426.97;1630533;86;21025;-70
2021/07/12 02:16:36;;;;;;;28.40;16.62;;;;;;;18.80;95.73;99420.23;1655195;85;20997;-71
2021/07/12 02:19:03;;;;;;;28.98;17.95;;;;;;;18.81;95.94;99421.83;1639265;86;21022;-71
2021/07/12 02:21:33;;;;;;;29.30;14.93;;;;;;;18.83;96.22;99429.22;1675392;84;21159;-70
2021/07/12 02:24:08;;;;;;;28.60;16.70;;;;;;;18.84;96.17;99427.23;1673336;84;21642;-70
2021/07/12 02:26:36;;;;;;;25.17;16.97;;;;;;;18.83;96.13;99430.61;1675871;84;20891;-70
2021/07/12 02:29:05;;;;;;;29.40;16.32;;;;;;;18.83;96.28;99425.05;1669089;84;21786;-70
2021/07/12 02:31:34;;;;;;;21.97;16.12;;;;;;;18.83;96.59;99429.22;1654916;85;21045;-71
2021/07/12 02:34:00;;;;;;;26.20;15.98;;;;;;;18.86;96.60;99420.13;1650704;85;21839;-71
2021/07/12 02:36:28;;;;;;;19.32;14.20;;;;;;;18.88;96.59;99432.27;1652816;85;20914;-70
2021/07/12 02:38:57;;;;;;;23.22;15.15;;;;;;;18.88;96.46;99435.05;1646545;86;21038;-71
2021/07/12 02:41:26;;;;;;;27.50;15.03;;;;;;;18.88;96.57;99435.85;1642347;85;21176;-71
2021/07/12 02:43:53;;;;;;;24.10;16.02;;;;;;;18.89;96.81;99433.88;1658893;85;21520;-71
2021/07/12 02:46:24;;;;;;;20.88;15.32;;;;;;;18.91;96.96;99433.72;1658756;85;23348;-70
2021/07/12 02:48:52;;;;;;;26.30;16.73;;;;;;;18.94;97.10;99427.98;1658769;85;21002;-70
2021/07/12 02:51:24;;;;;;;23.18;16.02;;;;;;;18.96;97.16;99427.83;1653319;85;21469;-70
2021/07/12 02:53:59;;;;;;;20.35;15.13;;;;;;;18.98;97.05;99426.87;1658737;85;21541;-71
2021/07/12 02:56:26;;;;;;;19.25;14.45;;;;;;;18.99;97.22;99421.52;1654276;85;21481;-70
2021/07/12 02:58:53;;;;;;;24.02;15.43;;;;;;;19.02;97.27;99423.55;1651662;85;21148;-70
2021/07/12 03:01:20;;;;;;;20.45;15.35;;;;;;;19.07;97.61;99423.78;1649976;85;20970;-70
2021/07/12 03:03:48;;;;;;;29.10;20.35;;;;;;;19.13;97.81;99421.70;1644792;85;21453;-72
2021/07/12 03:06:17;;;;;;;31.33;20.97;;;;;;;19.17;98.00;99422.34;1658993;85;21489;-71
2021/07/12 03:08:53;;;;;;;24.45;18.77;;;;;;;19.22;98.36;99411.68;1671556;85;21588;-71
2021/07/12 03:11:20;;;;;;;29.55;16.77;;;;;;;19.29;98.38;99413.77;1625733;86;22402;-70
2021/07/12 03:13:58;;;;;;;29.48;18.25;;;;;;;19.33;98.37;99416.80;1635739;86;20916;-70
2021/07/12 03:16:27;;;;;;;33.13;18.65;;;;;;;19.37;98.39;99412.67;1633149;87;21605;-69
2021/07/12 03:18:58;;;;;;;31.45;18.55;;;;;;;19.41;98.67;99415.72;1641261;87;21471;-71
2021/07/12 03:21:25;;;;;;;34.10;20.08;;;;;;;19.48;98.77;99417.80;1641788;87;21091;-74
2021/07/12 03:23:55;;;;;;;30.35;19.10;;;;;;;19.55;98.84;99416.52;1636258;87;21150;-72
2021/07/12 03:26:23;;;;;;;25.68;19.17;;;;;;;19.64;98.56;99410.66;1642089;86;21439;-71
2021/07/12 03:28:52;;;;;;;50.10;19.48;;;;;;;19.72;98.07;99407.56;1586575;87;20915;-72
2021/07/12 03:31:22;;;;;;;43.65;20.65;;;;;;;19.83;97.71;99409.66;1637223;85;21155;-71
2021/07/12 03:33:54;;;;;;;36.88;18.85;;;;;;;19.90;97.00;99411.14;1641120;87;20925;-73
2021/07/12 03:36:22;;;;;;;28.98;20.25;;;;;;;19.96;96.98;99413.20;1632053;86;25765;-74
2021/07/12 03:38:49;;;;;;;25.12;18.80;;;;;;;19.99;96.48;99408.85;1638117;86;21427;-77
2021/07/12 03:41:18;;;;;;;30.05;20.05;;;;;;;20.00;96.26;99407.08;1596204;87;21724;-71
2021/07/12 03:43:45;;;;;;;32.90;19.85;;;;;;;20.04;96.09;99407.11;1632123;87;21593;-70
2021/07/12 03:46:12;;;;;;;28.57;18.35;;;;;;;20.11;95.91;99411.37;1645795;86;20941;-69
2021/07/12 03:48:48;;;;;;;30.97;18.55;;;;;;;20.21;95.69;99406.49;1645721;87;21215;-74
2021/07/12 03:51:25;;;;;;;27.50;17.70;;;;;;;20.32;95.07;99407.95;1670326;84;21551;-71
2021/07/12 03:53:55;;;;;;;24.82;17.10;;;;;;;20.43;94.62;99415.86;1656819;84;21027;-72
2021/07/12 03:56:22;;;;;;;30.72;18.25;;;;;;;20.50;94.17;99408.95;1672197;84;20921;-73
2021/07/12 03:58:48;;;;;;;26.52;18.55;;;;;;;20.58;93.76;99412.01;1677313;84;21010;-73
2021/07/12 04:01:19;;;;;;;28.05;18.67;;;;;;;20.67;93.07;99413.08;1675540;85;21122;-71
2021/07/12 04:03:43;;;;;;;27.87;17.77;;;;;;;20.75;92.63;99413.34;1625769;85;21038;-72
2021/07/12 04:06:09;;;;;;;20.23;16.50;;;;;;;20.86;93.09;99413.39;1674695;85;20973;-72
2021/07/12 04:08:37;;;;;;;25.80;17.20;;;;;;;20.95;92.52;99423.02;1669029;84;21535;-72
2021/07/12 04:11:03;;;;;;;22.17;15.25;;;;;;;21.02;92.39;99415.30;1668274;84;21064;-72
2021/07/12 04:13:29;;;;;;;25.27;17.45;;;;;;;21.09;91.86;99418.94;1668787;84;21946;-72
2021/07/12 04:15:58;;;;;;;24.10;15.20;;;;;;;21.22;92.01;99411.66;1629572;86;21116;-72
2021/07/12 04:18:24;;;;;;;67.15;19.32;;;;;;;21.33;91.22;99414.72;1662001;85;21085;-72
2021/07/12 04:20:51;;;;;;;37.08;17.12;;;;;;;21.42;90.64;99404.56;1636865;86;21030;-71
2021/07/12 04:23:17;;;;;;;27.67;16.37;;;;;;;21.47;90.57;99398.59;1679366;85;20957;-71
2021/07/12 04:25:43;;;;;;;25.25;15.20;;;;;;;21.53;90.56;99399.02;1669082;84;21432;-72
2021/07/12 04:28:10;;;;;;;27.13;16.45;;;;;;;21.59;90.08;99398.85;1671681;84;20909;-71
2021/07/12 04:30:37;;;;;;;26.50;15.28;;;;;;;21.70;89.45;99394.91;1674954;84;20989;-72
2021/07/12 04:33:03;;;;;;;25.02;15.78;;;;;;;21.86;89.32;99391.77;1676378;84;21410;-72
2021/07/12 04:35:30;;;;;;;20.23;13.13;;;;;;;21.99;88.76;99395.77;1677044;84;20900;-72
2021/07/12 04:37:56;;;;;;;22.82;13.50;;;;;;;22.11;88.34;99391.82;1676698;85;21760;-72
2021/07/12 04:40:23;;;;;;;19.92;12.53;;;;;;;22.27;86.82;99385.86;1668945;84;20970;-72
2021/07/12 04:42:49;;;;;;;31.70;12.47;;;;;;;22.40;86.26;99385.07;1671706;84;20958;-72
2021/07/12 04:45:16;;;;;;;19.82;12.07;;;;;;;22.52;84.56;99385.27;1674485;84;21001;-72
2021/07/12 04:47:45;;;;;;;15.85;11.90;;;;;;;22.58;83.37;99389.84;1676648;85;22461;-72
2021/07/12 04:50:13;;;;;;;19.30;11.97;;;;;;;22.64;81.61;99393.83;1672371;85;21150;-72
2021/07/12 04:52:39;;;;;;;14.33;10.90;;;;;;;22.67;80.49;99391.03;1673194;85;21034;-72
2021/07/12 04:55:08;;;;;;;18.67;11.90;;;;;;;22.71;78.79;99389.03;1675819;85;20998;-74
2021/07/12 04:57:35;;;;;;;17.12;11.85;;;;;;;22.79;78.62;99388.45;1678457;84;21047;-73
2021/07/12 05:00:05;;;;;;;19.65;12.13;;;;;;;22.87;77.38;99392.84;1673575;84;21000;-75
2021/07/12 05:02:32;;;;;;;18.57;11.57;;;;;;;22.94;76.22;99397.64;1673165;84;21233;-75
2021/07/12 05:05:00;;;;;;;13.18;10.95;;;;;;;23.01;75.49;99397.02;1677221;84;20921;-74
2021/07/12 05:07:26;;;;;;;16.25;12.40;;;;;;;23.11;74.84;99397.41;1676857;85;21548;-73
2021/07/12 05:09:53;;;;;;;16.17;11.20;;;;;;;23.20;74.30;99392.16;1674881;84;21146;-74
2021/07/12 05:12:21;;;;;;;14.47;11.35;;;;;;;23.31;74.37;99389.52;1678397;84;21606;-74
2021/07/12 05:14:47;;;;;;;16.73;11.20;;;;;;;23.42;73.57;99386.69;1672636;84;21140;-81
2021/07/12 05:17:14;;;;;;;20.85;11.53;;;;;;;23.49;73.21;99388.05;1676958;84;21525;-79
2021/07/12 05:19:40;;;;;;;23.67;12.70;;;;;;;23.54;73.58;99386.27;1671359;84;21068;-73
2021/07/12 05:22:07;;;;;;;25.95;11.95;;;;;;;23.63;73.58;99387.23;1675276;84;21524;-73
2021/07/12 05:24:34;;;;;;;27.52;12.55;;;;;;;23.72;72.81;99388.96;1669687;84;21012;-75
2021/07/12 05:27:00;;;;;;;25.92;12.58;;;;;;;23.81;72.75;99381.51;1672482;84;21165;-75
2021/07/12 05:29:27;;;;;;;18.70;11.78;;;;;;;23.91;72.35;99383.45;1675243;85;20946;-73
2021/07/12 05:31:53;;;;;;;29.92;12.85;;;;;;;24.00;71.61;99386.00;1667306;84;21536;-73
2021/07/12 05:34:20;;;;;;;25.77;12.33;;;;;;;24.10;71.30;99387.14;1673333;84;21187;-73
2021/07/12 05:36:46;;;;;;;56.30;14.63;;;;;;;24.15;71.45;99394.33;1673660;84;21043;-73
2021/07/12 05:39:14;;;;;;;48.05;14.40;;;;;;;24.11;71.02;99398.56;1673314;84;21122;-73
2021/07/12 05:41:41;;;;;;;25.72;12.13;;;;;;;24.09;70.48;99392.56;1675392;85;21401;-73
2021/07/12 05:44:07;;;;;;;27.00;12.13;;;;;;;24.04;70.42;99399.40;1673856;85;21254;-73
2021/07/12 05:46:34;;;;;;;25.00;13.85;;;;;;;24.02;70.15;99405.22;1677375;84;21017;-72
2021/07/12 05:49:01;;;;;;;19.70;12.85;;;;;;;23.99;69.69;99411.65;1672341;84;21020;-72
2021/07/12 05:51:27;;;;;;;18.62;13.48;;;;;;;23.94;69.56;99409.27;1671555;85;21119;-73
2021/07/12 05:53:53;;;;;;;24.00;13.40;;;;;;;23.90;70.23;99409.29;1675962;83;21517;-73
2021/07/12 05:56:21;;;;;;;17.85;12.80;;;;;;;23.89;71.68;99418.11;1653229;85;20957;-72
2021/07/12 05:58:49;;;;;;;25.37;12.50;;;;;;;23.82;71.54;99431.55;1682254;83;20973;-72
2021/07/12 06:01:16;;;;;;;20.62;13.80;;;;;;;23.74;71.72;99427.19;1660396;84;21472;-72
2021/07/12 06:03:43;;;;;;;27.00;13.58;;;;;;;23.67;72.58;99432.25;1671369;84;21178;-72
2021/07/12 06:06:10;;;;;;;20.62;14.47;;;;;;;23.61;72.46;99443.68;1662249;84;21079;-72
2021/07/12 06:08:36;;;;;;;38.08;16.77;;;;;;;23.55;73.03;99445.30;1644085;86;21618;-71
2021/07/12 06:11:04;;;;;;;33.55;16.23;;;;;;;23.51;74.13;99457.09;1644880;86;20989;-70
2021/07/12 06:13:30;;;;;;;29.48;15.10;;;;;;;23.48;75.99;99429.09;1648371;86;21194;-70
2021/07/12 06:15:58;;;;;;;29.30;13.83;;;;;;;23.31;76.85;99420.93;1647094;86;21076;-69
2021/07/12 06:18:26;;;;;;;32.25;16.65;;;;;;;23.13;79.12;99424.37;1645130;86;21015;-68
2021/07/12 06:20:53;;;;;;;41.18;17.92;;;;;;;22.99;80.92;99424.62;1649318;86;21017;-70
2021/07/12 06:23:19;;;;;;;34.00;18.87;;;;;;;22.83;82.71;99422.84;1645754;86;21123;-70
2021/07/12 06:25:46;;;;;;;42.83;17.90;;;;;;;22.76;84.69;99429.80;1646014;86;21032;-70
2021/07/12 06:28:12;;;;;;;39.95;18.55;;;;;;;22.71;85.90;99427.41;1641637;86;21195;-71
2021/07/12 06:30:39;;;;;;;34.78;18.57;;;;;;;22.70;87.23;99442.59;1651449;85;20950;-70
2021/07/12 06:33:06;;;;;;;39.33;18.42;;;;;;;22.71;88.53;99450.59;1674577;84;20928;-70
2021/07/12 06:35:32;;;;;;;47.60;18.23;;;;;;;22.73;89.55;99454.39;1676682;85;21461;-70
2021/07/12 06:37:59;;;;;;;41.75;18.05;;;;;;;22.73;90.25;99462.78;1669771;83;21451;-69
2021/07/12 06:40:27;;;;;;;41.08;18.77;;;;;;;22.69;91.16;99457.78;1652451;86;21073;-70
2021/07/12 06:42:54;;;;;;;30.90;18.02;;;;;;;22.67;91.36;99459.58;1637930;86;20932;-69
2021/07/12 06:45:22;;;;;;;35.40;18.05;;;;;;;22.69;91.66;99460.58;1691317;84;21011;-70
2021/07/12 06:47:49;;;;;;;39.25;17.40;;;;;;;22.66;91.48;99459.98;1682281;83;21167;-71
2021/07/12 06:50:16;;;;;;;31.75;17.42;;;;;;;22.67;91.96;99474.17;1660876;83;21528;-70
2021/07/12 06:52:43;;;;;;;41.13;17.90;;;;;;;22.70;92.65;99464.98;1598836;87;21169;-70
2021/07/12 06:55:11;;;;;;;37.40;17.25;;;;;;;22.77;93.30;99454.39;1591009;89;21488;-70
2021/07/12 06:57:37;;;;;;;35.23;18.25;;;;;;;22.83;93.42;99448.02;1649733;84;21047;-69
2021/07/12 07:00:06;;;;;;;35.63;18.85;;;;;;;22.87;93.03;99443.22;1672155;84;20950;-71
2021/07/12 07:02:35;;;;;;;25.97;18.23;;;;;;;22.87;92.75;99446.63;1649414;84;20977;-69
2021/07/12 07:05:05;;;;;;;31.75;18.52;;;;;;;22.83;92.14;99447.22;1672301;84;21854;-69
2021/07/12 07:07:31;;;;;;;26.97;18.40;;;;;;;22.77;92.91;99454.39;1672905;84;21009;-70
2021/07/12 07:09:58;;;;;;;30.12;20.35;;;;;;;22.69;92.83;99456.38;1676037;85;21592;-70
2021/07/12 07:12:24;;;;;;;30.60;17.85;;;;;;;22.64;93.09;99451.98;1673903;84;20965;-71
2021/07/12 07:14:51;;;;;;;24.45;17.10;;;;;;;22.66;93.03;99458.58;1676233;85;21452;-70
2021/07/12 07:17:18;;;;;;;28.23;19.12;;;;;;;22.58;93.13;99463.38;1672028;84;21153;-71
2021/07/12 07:19:46;;;;;;;30.52;18.23;;;;;;;22.49;93.69;99458.80;1678945;85;21425;-70
2021/07/12 07:22:12;;;;;;;28.05;19.98;;;;;;;22.44;94.36;99459.19;1671443;84;21471;-69
2021/07/12 07:24:44;;;;;;;26.63;19.63;;;;;;;22.38;95.18;99471.36;1665025;84;20953;-70
2021/07/12 07:27:11;;;;;;;28.50;18.52;;;;;;;22.38;96.17;99481.15;1666482;84;21565;-70
2021/07/12 07:29:38;;;;;;;29.85;19.45;;;;;;;22.39;97.37;99488.94;1663181;86;21128;-69
2021/07/12 07:32:06;;;;;;;28.32;19.10;;;;;;;22.37;98.25;99489.94;1664125;86;21061;-69
2021/07/12 07:34:33;;;;;;;33.53;18.95;;;;;;;22.36;99.11;99495.33;1663220;86;20974;-69
2021/07/12 07:37:01;;;;;;;26.77;19.20;;;;;;;22.34;99.87;99489.33;1664835;86;20994;-69
2021/07/12 07:39:27;;;;;;;31.97;22.45;;;;;;;22.31;99.65;99516.69;1665182;86;20970;-69
2021/07/12 07:41:55;;;;;;;30.72;22.02;;;;;;;22.22;99.90;99522.65;1665133;86;21112;-72
2021/07/12 07:44:22;;;;;;;25.95;18.67;;;;;;;22.15;100.00;99533.01;1665948;85;20918;-72
2021/07/12 07:46:48;;;;;;;24.07;17.77;;;;;;;22.10;100.00;99518.02;1663317;86;21498;-72
2021/07/12 07:49:15;;;;;;;25.80;17.17;;;;;;;22.08;100.00;99515.02;1663262;86;21603;-72
2021/07/12 07:51:43;;;;;;;21.40;16.65;;;;;;;22.10;100.00;99506.23;1662791;86;20955;-70
2021/07/12 07:54:12;;;;;;;19.80;14.75;;;;;;;22.13;100.00;99511.03;1662878;85;21186;-71
2021/07/12 07:56:39;;;;;;;16.95;13.55;;;;;;;22.16;100.00;99511.64;1661631;84;21592;-72
2021/07/12 07:59:06;;;;;;;20.35;11.88;;;;;;;22.16;99.50;99516.44;1669354;84;20929;-70
2021/07/12 08:01:34;;;;;;;19.17;11.48;;;;;;;22.14;98.55;99501.45;1651099;84;21511;-70
2021/07/12 08:04:00;;;;;;;21.68;12.55;;;;;;;22.14;98.00;99493.06;1678644;84;21481;-70
2021/07/12 08:06:27;;;;;;;22.35;13.30;;;;;;;22.16;97.54;99494.88;1669690;84;21149;-71
2021/07/12 08:08:54;;;;;;;17.48;14.35;;;;;;;22.22;97.65;99485.50;1665305;84;20870;-70
2021/07/12 08:11:20;;;;;;;15.95;13.65;;;;;;;22.26;97.68;99466.74;1656099;84;20989;-71
2021/07/12 08:13:46;;;;;;;22.65;16.02;;;;;;;22.33;97.45;99460.56;1678248;85;22242;-70
2021/07/12 08:16:13;;;;;;;29.87;13.85;;;;;;;22.36;97.59;99467.36;1676111;85;20909;-74
2021/07/12 08:18:41;;;;;;;20.35;13.35;;;;;;;22.40;97.47;99472.36;1672986;84;20962;-71
2021/07/12 08:21:11;;;;;;;21.87;12.88;;;;;;;22.44;97.08;99473.17;1675843;83;20988;-70
2021/07/12 08:23:39;;;;;;;17.92;12.63;;;;;;;22.47;97.02;99468.78;1670383;84;21076;-70
2021/07/12 08:26:05;;;;;;;22.37;12.58;;;;;;;22.52;97.09;99471.19;1674188;84;21552;-71
2021/07/12 08:28:32;;;;;;;21.25;11.90;;;;;;;22.54;96.33;99468.77;1677457;85;21038;-70
2021/07/12 08:30:58;;;;;;;19.87;12.43;;;;;;;22.57;96.13;99463.77;1673096;85;21137;-70
2021/07/12 08:33:25;;;;;;;23.07;12.23;;;;;;;22.61;96.38;99458.98;1676750;84;21600;-70
2021/07/12 08:35:52;;;;;;;12.65;11.00;;;;;;;22.68;97.08;99464.58;1673039;84;21005;-70
2021/07/12 08:38:18;;;;;;;14.95;10.48;;;;;;;22.76;96.48;99464.78;1675673;85;21485;-70
2021/07/12 08:40:45;;;;;;;15.05;11.65;;;;;;;22.82;94.87;99466.02;1676806;84;21552;-70
2021/07/12 08:43:12;;;;;;;17.37;12.00;;;;;;;22.88;94.58;99464.41;1648656;85;21497;-70
2021/07/12 08:45:39;;;;;;;21.30;11.65;;;;;;;22.99;94.61;99469.41;1673268;84;21773;-71
2021/07/12 08:48:05;;;;;;;21.57;11.55;;;;;;;23.10;95.22;99471.41;1668649;85;21020;-70
2021/07/12 08:50:32;;;;;;;13.30;11.57;;;;;;;23.20;95.59;99481.76;1677794;84;21124;-71
2021/07/12 08:52:59;;;;;;;23.45;12.68;;;;;;;23.28;95.69;99484.75;1676391;84;21574;-70
2021/07/12 08:55:25;;;;;;;17.87;12.85;;;;;;;23.34;95.34;99491.55;1671611;85;21124;-70
2021/07/12 08:58:05;;;;;;;16.73;12.07;;;;;;;23.39;95.85;99486.33;1670580;84;20985;-70
2021/07/12 09:00:37;;;;;;;16.77;12.45;;;;;;;23.45;95.96;99490.92;1664316;86;21433;-71
2021/07/12 09:03:21;;;;;;;25.23;14.28;;;;;;;23.53;96.29;99472.92;1647810;85;21105;-70
2021/07/12 09:06:04;;;;;;;16.90;12.88;;;;;;;23.85;98.01;99471.39;1673182;84;21174;-69
2021/07/12 09:08:39;;;;;;;21.23;13.78;;;;;;;24.12;95.66;99468.86;1656429;84;22367;-70
2021/07/12 09:11:13;;;;;;;24.75;15.80;;;;;;;24.28;95.12;99475.38;1670593;84;21065;-71
2021/07/12 09:13:59;;;;;;;22.40;16.20;;;;;;;24.40;94.27;99478.32;1644407;85;21134;-70
2021/07/12 09:16:47;;;;;;;23.10;14.43;;;;;;;24.47;94.67;99475.47;1649436;85;20983;-70
2021/07/12 09:19:25;;;;;;;18.80;14.00;;;;;;;24.59;94.23;99474.98;1628705;85;21536;-70
2021/07/12 09:22:03;;;;;;;17.55;14.47;;;;;;;24.77;93.69;99476.26;1632170;86;21735;-70
2021/07/12 09:24:33;;;;;;;16.37;13.13;;;;;;;24.94;91.80;99462.05;1639946;85;21549;-69
2021/07/12 09:27:08;;;;;;;17.40;14.18;;;;;;;25.06;89.42;99465.59;1637248;85;21525;-75
2021/07/12 09:29:41;;;;;;;24.02;13.80;;;;;;;25.16;88.95;99465.49;1620817;87;21144;-72
2021/07/12 09:32:14;;;;;;;18.45;13.90;;;;;;;25.26;88.26;99460.37;1613891;87;21013;-73
2021/07/12 09:34:41;;;;;;;;;;;;;;;25.34;85.99;99462.50;1618073;87;21809;-74
2021/07/12 09:37:11;;;;;;;16.23;12.82;;;;;;;25.38;86.06;99465.28;1614766;87;20134;-71
2021/07/12 09:39:43;;;;;;;16.50;12.95;;;;;;;25.38;86.60;99473.10;1617022;86;21199;-71
2021/07/12 09:42:14;;;;;;;20.20;13.18;;;;;;;25.44;85.73;99472.80;1635195;86;21136;-73
2021/07/12 09:44:44;;;;;;;16.25;14.03;;;;;;;25.47;85.10;99466.34;1626285;87;21482;-72
2021/07/12 09:47:19;;;;;;;18.37;14.05;;;;;;;25.45;85.63;99469.39;1618865;86;21137;-71
2021/07/12 09:49:47;;;;;;;15.65;13.40;;;;;;;25.48;84.51;99474.17;1630102;86;21064;-71
2021/07/12 09:52:17;;;;;;;18.12;13.70;;;;;;;25.55;84.17;99474.89;1623063;86;20970;-70
2021/07/12 09:54:46;;;;;;;17.77;14.78;;;;;;;25.62;83.25;99474.02;1623449;87;21533;-78
2021/07/12 09:57:15;;;;;;;17.85;14.07;;;;;;;25.64;83.26;99468.20;1630817;87;21144;-73
2021/07/12 10:00:07;;;;;;;20.75;14.75;;;;;;;25.72;84.67;99475.14;1610812;87;21147;-81
2021/07/12 10:02:41;;;;;;;23.75;16.02;;;;;;;25.80;83.48;99468.22;1610470;86;21536;-72
2021/07/12 10:05:11;;;;;;;18.35;16.25;;;;;;;25.84;81.19;99472.58;1624307;87;21096;-72
2021/07/12 10:07:38;;;;;;;19.50;16.67;;;;;;;25.92;80.54;99468.46;1620006;86;20986;-71
2021/07/12 10:10:13;;;;;;;24.00;17.32;;;;;;;26.05;81.06;99479.12;1623415;86;21061;-78
2021/07/12 10:12:37;;;;;;;21.02;16.93;;;;;;;26.14;79.79;99475.19;1622869;86;21539;-75
2021/07/12 10:15:05;;;;;;;26.17;16.52;;;;;;;26.22;79.18;99469.66;1617685;86;21472;-74
2021/07/12 10:17:32;;;;;;;19.32;14.78;;;;;;;26.29;78.97;99463.31;1615096;87;21096;-75
2021/07/12 10:19:58;;;;;;;20.45;15.18;;;;;;;26.41;80.15;99462.58;1623999;87;21116;-73
2021/07/12 10:22:25;;;;;;;17.35;15.43;;;;;;;26.55;78.21;99458.14;1610872;86;21569;-73
2021/07/12 10:24:52;;;;;;;22.45;15.88;;;;;;;26.65;77.91;99455.13;1613923;87;21128;-71
2021/07/12 10:27:26;;;;;;;18.32;15.58;;;;;;;26.83;78.57;99453.44;1630049;86;21592;-82
2021/07/12 10:29:56;;;;;;;18.05;15.00;;;;;;;27.08;77.15;99450.84;1648021;85;20882;-84
2021/07/12 10:32:26;;;;;;;20.55;14.35;;;;;;;27.38;75.56;99453.47;1653819;85;21002;-75
2021/07/12 10:35:11;;;;;;;17.10;15.30;;;;;;;27.67;74.96;99455.16;1651599;85;21449;-72
2021/07/12 10:37:41;;;;;;;19.52;15.63;;;;;;;27.95;74.66;99452.34;1647099;85;21211;-72
2021/07/12 10:40:14;;;;;;;20.72;15.48;;;;;;;28.20;71.60;99448.36;1651371;84;21013;-72
2021/07/12 10:42:45;;;;;;;21.12;16.85;;;;;;;28.35;70.37;99442.39;1659561;85;20975;-77
2021/07/12 10:45:17;;;;;;;16.10;14.40;;;;;;;28.52;71.42;99444.80;1647269;85;21027;-75
2021/07/12 10:47:45;;;;;;;19.30;16.25;;;;;;;28.73;68.48;99439.87;1611313;87;21136;-75
2021/07/12 10:50:37;;;;;;;18.25;14.43;;;;;;;28.96;68.60;99432.62;1613548;87;21153;-75
2021/07/12 10:53:28;;;;;;;17.40;14.05;;;;;;;29.32;68.75;99433.88;1605898;86;21012;-75
2021/07/12 10:56:09;;;;;;;17.23;14.95;;;;;;;29.81;66.56;99426.03;1602629;87;21531;-74
2021/07/12 10:58:40;;;;;;;17.55;14.00;;;;;;;30.08;65.18;99422.80;1599602;87;21061;-74
2021/07/12 11:01:08;;;;;;;15.90;14.25;;;;;;;30.37;63.55;99418.45;1606850;87;21049;-77
2021/07/12 11:03:53;;;;;;;18.20;13.62;;;;;;;30.66;61.95;99416.11;1614530;87;21157;-73
2021/07/12 11:06:24;;;;;;;15.90;13.45;;;;;;;30.93;59.78;99404.27;1652551;85;47040;-74
2021/07/12 11:08:54;;;;;;;21.35;14.40;;;;;;;31.18;60.82;99395.09;1673580;84;20921;-74
2021/07/12 11:11:26;;;;;;;16.17;14.00;;;;;;;31.49;60.77;99393.73;1669832;84;21021;-73
2021/07/12 11:14:02;;;;;;;14.78;12.33;;;;;;;31.78;59.56;99383.53;1654645;86;21060;-76
2021/07/12 11:16:46;;;;;;;17.27;12.47;;;;;;;31.99;57.38;99377.66;1663708;86;21521;-70
2021/07/12 11:19:27;;;;;;;17.55;11.85;;;;;;;32.22;54.87;99371.28;1662398;84;21098;-75
2021/07/12 11:22:14;;;;;;;14.53;11.53;;;;;;;32.39;54.49;99358.41;1665248;84;20961;-76
2021/07/12 11:25:03;;;;;;;12.73;11.43;;;;;;;32.65;53.72;99350.42;1684241;83;21078;-75
2021/07/12 11:27:41;;;;;;;13.90;11.55;;;;;;;32.85;52.66;99333.75;1628962;85;21130;-74
2021/07/12 11:30:28;;;;;;;12.33;9.78;;;;;;;33.10;53.22;99333.41;1630195;85;22067;-76
2021/07/12 11:32:56;;;;;;;11.55;9.23;;;;;;;33.25;50.54;99325.03;1657698;83;21125;-74